Time;durP1;ratioP1;P1;durP2;ratioP2;P2;SDS_P1;SDS_P2;PMS_P1;PMS_P2;Temp;Humidity;BMP_temperature;BMP_pressure;BME280_temperature;BME280_humidity;BME280_pressure;Samples;Min_cycle;Max_cycle;Signal;HPM_P1;HPM_P2
2023/01/05 00:01:31;;;;;;;3.30;1.00;;;10.10;93.70;;;;;;5060352;28;20052;-58
2023/01/05 00:03:59;;;;;;;2.95;1.15;;;10.00;93.70;;;;;;5061394;28;20056;-58
2023/01/05 00:06:26;;;;;;;3.65;1.25;;;10.00;93.70;;;;;;5065750;28;20041;-59
2023/01/05 00:08:55;;;;;;;1.92;0.80;;;10.10;93.70;;;;;;5063664;28;20110;-58
2023/01/05 00:22:46;;;;;;;2.45;0.82;;;10.10;93.90;;;;;;5062736;28;20404;-67
2023/01/05 00:25:16;;;;;;;3.63;1.08;;;10.10;93.70;;;;;;5056297;28;20526;-66
2023/01/05 00:27:44;;;;;;;2.53;1.00;;;10.10;93.80;;;;;;5065240;28;20045;-65
2023/01/05 00:30:14;;;;;;;3.38;0.98;;;10.10;93.70;;;;;;5065868;28;20053;-66
2023/01/05 00:32:42;;;;;;;2.28;0.70;;;10.10;93.80;;;;;;5065450;28;20045;-59
2023/01/05 00:35:12;;;;;;;2.83;0.75;;;10.10;93.70;;;;;;5067597;28;20080;-60
2023/01/05 00:37:39;;;;;;;2.60;0.90;;;10.10;93.80;;;;;;5068342;28;20065;-60
2023/01/05 00:40:08;;;;;;;4.32;1.05;;;10.10;93.80;;;;;;5065905;28;20060;-60
2023/01/05 00:42:35;;;;;;;1.42;0.50;;;10.10;93.80;;;;;;5065390;28;20057;-59
2023/01/05 00:45:02;;;;;;;0.90;0.40;;;10.10;94.00;;;;;;5021454;28;21114;-60
2023/01/05 00:47:29;;;;;;;1.13;0.47;;;10.10;94.00;;;;;;5054527;28;20076;-60
2023/01/05 00:49:56;;;;;;;0.68;0.30;;;10.10;93.90;;;;;;5036268;28;20119;-59
2023/01/05 00:52:24;;;;;;;1.70;0.43;;;10.10;93.90;;;;;;5039099;28;20063;-61
2023/01/05 00:54:51;;;;;;;2.42;0.60;;;10.10;93.80;;;;;;5049432;28;20045;-59
2023/01/05 00:57:18;;;;;;;0.98;0.40;;;10.10;93.80;;;;;;5034396;28;20049;-64
2023/01/05 00:59:45;;;;;;;1.58;0.50;;;10.10;93.90;;;;;;5055266;28;20049;-64
2023/01/05 01:02:14;;;;;;;2.15;0.65;;;10.10;93.80;;;;;;5035742;28;20036;-66
2023/01/05 01:04:41;;;;;;;1.63;0.50;;;10.10;93.80;;;;;;5035653;28;20055;-67
2023/01/05 01:07:08;;;;;;;2.85;0.55;;;10.10;93.90;;;;;;5054175;28;20051;-64
2023/01/05 01:09:36;;;;;;;1.75;0.40;;;10.20;93.80;;;;;;5056113;28;20422;-64
2023/01/05 01:12:04;;;;;;;1.25;0.47;;;10.20;93.60;;;;;;5030534;28;20044;-64
2023/01/05 01:14:31;;;;;;;1.52;0.40;;;10.10;93.70;;;;;;5015278;28;20049;-66
2023/01/05 01:16:57;;;;;;;1.20;0.35;;;10.10;93.60;;;;;;5030928;28;20488;-64
2023/01/05 01:19:27;;;;;;;1.15;0.32;;;10.10;93.70;;;;;;5037950;28;20065;-66
2023/01/05 01:21:54;;;;;;;1.92;0.60;;;10.10;93.70;;;;;;5055047;28;20095;-63
2023/01/05 01:24:22;;;;;;;0.77;0.40;;;10.10;93.60;;;;;;5055648;28;20057;-63
2023/01/05 01:26:51;;;;;;;2.20;0.70;;;10.10;93.70;;;;;;5053155;28;20048;-67
2023/01/05 01:29:19;;;;;;;1.45;0.45;;;10.20;93.60;;;;;;5037376;28;20044;-64
2023/01/05 01:31:48;;;;;;;1.67;0.60;;;10.20;93.80;;;;;;5057135;28;20048;-67
2023/01/05 01:34:15;;;;;;;1.80;0.60;;;10.20;93.80;;;;;;5057625;28;20041;-65
2023/01/05 01:36:42;;;;;;;1.42;0.47;;;10.20;93.80;;;;;;5039957;28;20132;-65
2023/01/05 01:39:10;;;;;;;1.42;0.52;;;10.20;93.70;;;;;;5037633;28;20048;-65
2023/01/05 01:41:43;;;;;;;0.55;0.40;;;10.20;93.60;;;;;;5024810;28;20044;-65
2023/01/05 01:45:03;;;;;;;1.00;0.50;;;10.20;93.70;;;;;;5034014;28;20049;-66
2023/01/05 01:47:38;;;;;;;1.25;0.50;;;10.20;93.80;;;;;;4979634;28;20062;-65
2023/01/05 01:50:13;;;;;;;2.20;0.57;;;10.20;93.80;;;;;;4977993;28;20102;-67
2023/01/05 01:52:42;;;;;;;2.35;0.70;;;10.20;93.80;;;;;;4997298;28;20412;-66
2023/01/05 01:55:10;;;;;;;2.33;0.70;;;10.20;93.70;;;;;;5041780;28;20056;-66
2023/01/05 01:57:39;;;;;;;2.17;0.60;;;10.20;93.70;;;;;;5040527;28;20093;-64
2023/01/05 02:00:09;;;;;;;0.80;0.43;;;10.20;93.80;;;;;;5020896;28;20077;-65
2023/01/05 02:02:50;;;;;;;2.33;0.60;;;10.20;93.80;;;;;;5036271;28;20242;-65
2023/01/05 02:05:24;;;;;;;0.70;0.38;;;10.20;93.80;;;;;;5021696;28;20046;-66
2023/01/05 02:07:51;;;;;;;;;;;10.20;93.70;;;;;;5042402;28;20045;-65
2023/01/05 02:10:23;;;;;;;1.58;0.30;;;10.20;93.70;;;;;;5025126;28;19979;-64
2023/01/05 02:13:02;;;;;;;0.80;0.30;;;10.20;93.80;;;;;;5037828;28;20057;-65
2023/01/05 02:15:40;;;;;;;0.50;0.25;;;10.20;93.80;;;;;;5038751;28;20123;-65
2023/01/05 02:18:26;;;;;;;0.57;0.30;;;10.20;93.80;;;;;;5022925;28;20116;-64
2023/01/05 02:21:18;;;;;;;0.73;0.30;;;10.20;93.70;;;;;;5041557;28;20057;-65
2023/01/05 02:24:25;;;;;;;1.35;0.40;;;10.20;93.80;;;;;;5022786;28;20130;-65
2023/01/05 02:27:32;;;;;;;0.80;0.40;;;10.20;93.90;;;;;;5030480;28;20114;-64
2023/01/05 02:30:28;;;;;;;1.33;0.40;;;10.20;93.90;;;;;;5041129;28;20510;-65
2023/01/05 02:33:00;;;;;;;1.45;0.40;;;10.20;93.90;;;;;;5017515;28;20550;-65
2023/01/05 02:35:40;;;;;;;0.82;0.30;;;10.30;93.90;;;;;;5030283;28;20077;-64
2023/01/05 02:38:16;;;;;;;1.25;0.40;;;10.20;93.70;;;;;;5020709;28;20080;-66
2023/01/05 02:40:47;;;;;;;1.42;0.32;;;10.20;93.70;;;;;;5036961;28;20063;-64
2023/01/05 02:43:19;;;;;;;0.88;0.30;;;10.20;93.70;;;;;;5052232;28;20045;-66
2023/01/05 02:45:46;;;;;;;0.63;0.25;;;10.20;93.60;;;;;;5067923;28;20048;-65
2023/01/05 02:48:16;;;;;;;0.88;0.30;;;10.20;93.50;;;;;;5057370;28;20522;-65
2023/01/05 02:50:49;;;;;;;1.25;0.30;;;10.20;93.40;;;;;;5067420;28;20450;-65
2023/01/05 02:53:21;;;;;;;0.68;0.30;;;10.20;93.30;;;;;;5062604;28;20045;-66
2023/01/05 02:55:52;;;;;;;0.90;0.35;;;10.20;93.30;;;;;;5042056;28;20048;-61
2023/01/05 02:58:26;;;;;;;1.70;0.40;;;10.20;93.30;;;;;;5049826;28;20659;-61
2023/01/05 03:00:55;;;;;;;0.50;0.30;;;10.20;93.30;;;;;;5058151;28;20139;-60
2023/01/05 03:03:30;;;;;;;1.25;0.63;;;10.20;93.20;;;;;;5067245;28;20090;-62
2023/01/05 03:06:03;;;;;;;0.90;0.30;;;10.20;93.20;;;;;;5059166;28;20040;-61
2023/01/05 03:08:36;;;;;;;2.35;0.40;;;10.20;93.20;;;;;;5047371;28;20056;-61
2023/01/05 03:13:58;;;;;;;1.08;0.40;;;10.20;93.30;;;;;;5067148;28;20131;-62
2023/01/05 03:16:29;;;;;;;1.50;0.45;;;10.20;93.40;;;;;;5045359;28;20064;-63
2023/01/05 03:35:54;;;;;;;0.90;0.30;;;10.20;93.50;;;;;;5064838;28;20124;-65
2023/01/05 03:38:28;;;;;;;0.85;0.50;;;10.20;93.50;;;;;;5047564;28;20046;-65
2023/01/05 03:41:00;;;;;;;1.15;0.50;;;10.20;93.40;;;;;;5054839;28;20044;-64
2023/01/05 03:43:28;;;;;;;1.08;0.52;;;10.20;93.40;;;;;;5049726;28;20044;-65
2023/01/05 03:45:57;;;;;;;3.60;0.73;;;10.20;93.40;;;;;;5061763;28;20078;-65
2023/01/05 03:48:28;;;;;;;;;;;10.20;93.40;;;;;;5050370;28;20075;-65
2023/01/05 03:50:56;;;;;;;0.93;0.40;;;10.20;93.40;;;;;;5063568;28;19932;-66
2023/01/05 03:53:26;;;;;;;2.40;0.68;;;10.20;93.20;;;;;;5044221;28;20098;-63
2023/01/05 03:55:53;;;;;;;2.13;0.60;;;10.20;93.10;;;;;;5044857;28;20049;-65
2023/01/05 03:58:20;;;;;;;2.92;0.55;;;10.20;93.00;;;;;;5061961;28;20461;-64
2023/01/05 04:00:49;;;;;;;1.17;0.55;;;10.20;92.90;;;;;;5043241;28;20759;-65
2023/01/05 04:03:19;;;;;;;1.45;0.40;;;10.10;92.90;;;;;;5058212;28;20411;-64
2023/01/05 04:05:47;;;;;;;1.63;0.60;;;10.20;92.90;;;;;;5038582;28;20123;-64
2023/01/05 04:08:17;;;;;;;4.28;0.60;;;10.10;93.00;;;;;;5047622;28;20092;-65
2023/01/05 04:10:44;;;;;;;0.65;0.35;;;10.10;93.00;;;;;;5048583;28;20047;-66
2023/01/05 04:13:13;;;;;;;2.63;0.70;;;10.10;92.90;;;;;;5048633;28;20483;-65
2023/01/05 04:15:42;;;;;;;2.13;0.43;;;10.10;92.90;;;;;;5067720;28;20044;-64
2023/01/05 04:18:10;;;;;;;3.15;0.77;;;10.20;93.00;;;;;;5051985;28;20506;-64
2023/01/05 04:20:37;;;;;;;1.38;0.40;;;10.10;93.00;;;;;;5069135;28;20508;-66
2023/01/05 04:23:05;;;;;;;2.53;0.40;;;10.10;93.00;;;;;;5052474;28;20049;-64
2023/01/05 04:25:35;;;;;;;1.92;0.55;;;10.10;92.80;;;;;;5050666;28;20055;-64
2023/01/05 04:28:13;;;;;;;2.08;0.50;;;10.10;92.80;;;;;;5047270;28;20483;-64
2023/01/05 04:30:43;;;;;;;1.52;0.70;;;10.10;92.80;;;;;;5069298;28;20048;-65
2023/01/05 04:33:09;;;;;;;1.52;0.60;;;10.10;92.70;;;;;;5065929;28;20049;-66
2023/01/05 04:35:38;;;;;;;2.17;0.60;;;10.10;92.70;;;;;;5049174;28;20087;-61
2023/01/05 04:38:05;;;;;;;2.58;0.70;;;10.10;92.60;;;;;;5051233;28;20053;-63
2023/01/05 04:40:34;;;;;;;5.65;1.00;;;10.10;92.60;;;;;;5051609;28;20163;-69
2023/01/05 04:43:02;;;;;;;3.42;0.80;;;10.10;92.50;;;;;;5047505;28;20407;-66
2023/01/05 04:45:29;;;;;;;5.25;1.00;;;10.10;92.40;;;;;;5051373;28;20059;-66
2023/01/05 04:47:57;;;;;;;5.22;0.90;;;10.10;92.30;;;;;;5051794;28;20135;-66
2023/01/05 04:50:24;;;;;;;3.58;0.80;;;10.10;92.30;;;;;;5051604;28;20045;-67
2023/01/05 04:52:51;;;;;;;5.43;1.85;;;10.10;92.20;;;;;;5048171;28;20064;-65
2023/01/05 04:55:21;;;;;;;3.17;0.83;;;10.00;92.10;;;;;;5041765;28;20153;-65
2023/01/05 04:57:49;;;;;;;4.40;0.80;;;10.00;92.20;;;;;;5044720;28;20567;-67
2023/01/05 05:00:18;;;;;;;3.90;1.00;;;10.00;92.20;;;;;;5048496;28;20142;-64
2023/01/05 05:02:47;;;;;;;3.10;0.70;;;10.00;92.20;;;;;;5058497;28;20048;-66
2023/01/05 05:05:15;;;;;;;2.47;0.70;;;10.00;92.10;;;;;;5065366;28;20044;-66
2023/01/05 05:07:43;;;;;;;4.85;1.00;;;10.00;92.00;;;;;;5052376;28;20051;-66
2023/01/05 05:10:11;;;;;;;2.85;0.70;;;10.00;92.00;;;;;;5042500;28;20079;-66
2023/01/05 05:12:41;;;;;;;3.92;0.88;;;10.00;92.00;;;;;;5048811;28;20044;-59
2023/01/05 05:15:11;;;;;;;5.55;0.90;;;10.00;91.90;;;;;;5052495;28;20044;-59
2023/01/05 05:17:43;;;;;;;5.57;1.13;;;10.00;91.60;;;;;;5050152;28;20131;-63
2023/01/05 05:20:12;;;;;;;2.95;0.70;;;10.00;91.70;;;;;;5050417;28;20048;-65
2023/01/05 05:22:39;;;;;;;5.03;1.00;;;9.90;91.60;;;;;;5068442;28;20048;-63
2023/01/05 05:25:08;;;;;;;6.28;1.67;;;9.90;91.50;;;;;;5052186;28;20048;-63
2023/01/05 05:27:38;;;;;;;5.80;1.10;;;9.90;91.50;;;;;;5050434;28;20048;-63
2023/01/05 05:30:05;;;;;;;6.63;1.30;;;9.90;91.30;;;;;;5065275;28;20056;-63
2023/01/05 05:32:35;;;;;;;6.32;1.33;;;9.90;91.20;;;;;;5066519;28;20075;-63
2023/01/05 05:35:02;;;;;;;5.10;1.10;;;9.90;91.10;;;;;;5068606;28;20037;-64
2023/01/05 05:37:29;;;;;;;6.97;1.60;;;9.80;91.00;;;;;;5066560;28;20529;-64
2023/01/05 05:39:56;;;;;;;5.05;1.27;;;9.90;91.10;;;;;;5062579;28;20052;-62
2023/01/05 05:42:22;;;;;;;5.60;1.48;;;9.90;91.00;;;;;;5067955;28;20068;-64
2023/01/05 05:44:49;;;;;;;7.15;1.70;;;9.90;91.10;;;;;;5063722;28;20047;-63
2023/01/05 05:47:16;;;;;;;7.38;1.67;;;9.90;91.00;;;;;;5065845;28;20052;-63
2023/01/05 05:49:44;;;;;;;4.55;1.00;;;9.90;90.90;;;;;;5067390;28;20403;-63
2023/01/05 05:52:11;;;;;;;8.27;1.70;;;9.80;90.80;;;;;;5064933;28;20045;-63
2023/01/05 05:54:38;;;;;;;8.48;1.70;;;9.80;90.80;;;;;;5064792;28;20059;-63
2023/01/05 05:57:05;;;;;;;6.25;1.20;;;9.70;90.50;;;;;;5069170;28;20045;-64
2023/01/05 05:59:31;;;;;;;7.32;1.40;;;9.80;90.50;;;;;;5066028;28;20538;-64
2023/01/05 06:01:58;;;;;;;6.00;1.02;;;9.80;90.60;;;;;;5066225;28;20044;-63
2023/01/05 06:04:25;;;;;;;6.80;1.48;;;9.80;90.80;;;;;;5063995;28;20060;-64
2023/01/05 06:06:53;;;;;;;8.68;1.20;;;9.80;90.70;;;;;;5065644;28;20487;-63
2023/01/05 06:09:20;;;;;;;6.97;1.98;;;9.70;90.70;;;;;;5063054;28;20057;-64
2023/01/05 06:11:47;;;;;;;5.93;1.27;;;9.70;90.50;;;;;;5064270;28;20048;-63
2023/01/05 06:14:14;;;;;;;6.32;0.90;;;9.70;90.60;;;;;;5065864;28;20040;-65
2023/01/05 06:16:41;;;;;;;6.22;1.48;;;9.70;90.50;;;;;;5067575;28;20097;-64
2023/01/05 06:19:09;;;;;;;9.68;1.45;;;9.80;90.40;;;;;;5064650;28;20044;-63
2023/01/05 06:21:36;;;;;;;7.50;1.23;;;9.70;90.30;;;;;;5069506;28;20052;-63
2023/01/05 06:24:05;;;;;;;8.25;1.63;;;9.70;90.40;;;;;;5065319;28;20419;-63
2023/01/05 06:26:32;;;;;;;7.20;1.25;;;9.70;90.50;;;;;;5064729;28;20056;-64
2023/01/05 06:28:59;;;;;;;7.80;2.00;;;9.70;90.40;;;;;;5065347;28;20056;-63
2023/01/05 06:31:26;;;;;;;6.82;1.42;;;9.70;90.50;;;;;;5065964;28;20053;-63
2023/01/05 06:33:53;;;;;;;6.00;1.67;;;9.70;90.40;;;;;;5066071;28;20040;-64
2023/01/05 06:36:19;;;;;;;6.93;1.35;;;9.70;90.40;;;;;;5068198;28;20044;-64
2023/01/05 06:38:46;;;;;;;6.57;1.30;;;9.70;90.30;;;;;;5064911;28;20064;-65
2023/01/05 06:41:14;;;;;;;10.57;1.92;;;9.70;90.40;;;;;;5064732;28;20426;-65
2023/01/05 06:43:41;;;;;;;6.88;1.50;;;9.70;90.40;;;;;;5064917;28;20057;-64
2023/01/05 06:46:08;;;;;;;6.45;1.55;;;9.70;90.30;;;;;;5062969;28;20055;-64
2023/01/05 06:48:35;;;;;;;7.18;1.50;;;9.70;90.40;;;;;;5067811;28;20079;-63
2023/01/05 06:51:02;;;;;;;9.98;1.83;;;9.70;90.40;;;;;;5064750;28;20044;-65
2023/01/05 06:53:29;;;;;;;6.72;1.73;;;9.70;90.30;;;;;;5065948;28;20044;-64
2023/01/05 06:55:55;;;;;;;7.32;1.42;;;9.70;90.30;;;;;;5063894;28;20114;-64
2023/01/05 06:58:24;;;;;;;6.20;1.50;;;9.70;90.30;;;;;;5065698;28;20039;-63
2023/01/05 07:00:53;;;;;;;6.20;1.63;;;9.70;90.50;;;;;;5064114;28;20052;-64
2023/01/05 07:03:22;;;;;;;6.60;1.33;;;9.70;90.40;;;;;;5066320;28;20047;-64
2023/01/05 07:05:49;;;;;;;7.78;1.38;;;9.60;90.30;;;;;;5065369;28;20452;-65
2023/01/05 07:08:16;;;;;;;9.38;1.55;;;9.60;90.40;;;;;;5068075;28;20051;-63
2023/01/05 07:10:43;;;;;;;6.35;1.13;;;9.60;90.50;;;;;;5064009;28;20133;-64
2023/01/05 07:13:10;;;;;;;4.95;1.30;;;9.60;90.50;;;;;;5068062;28;20056;-64
2023/01/05 07:15:38;;;;;;;6.50;1.33;;;9.60;90.50;;;;;;5064293;28;20052;-64
2023/01/05 07:18:05;;;;;;;8.68;1.60;;;9.50;90.50;;;;;;5065837;28;20044;-63
2023/01/05 07:20:32;;;;;;;7.00;1.83;;;9.50;90.60;;;;;;5065824;28;20060;-63
2023/01/05 07:23:02;;;;;;;6.13;1.77;;;9.50;90.50;;;;;;5067769;28;20051;-63
2023/01/05 07:25:32;;;;;;;9.27;1.60;;;9.60;90.30;;;;;;5064917;28;20048;-64
2023/01/05 07:27:58;;;;;;;6.90;1.35;;;9.60;90.20;;;;;;5065832;28;20136;-64
2023/01/05 07:30:25;;;;;;;11.32;2.15;;;9.60;90.20;;;;;;5059712;28;20055;-64
2023/01/05 07:32:58;;;;;;;8.52;1.50;;;9.60;90.00;;;;;;5047696;28;20603;-64
2023/01/05 07:35:25;;;;;;;10.73;1.67;;;9.50;89.90;;;;;;5067797;28;20402;-63
2023/01/05 07:37:52;;;;;;;9.43;1.58;;;9.50;89.90;;;;;;5067461;28;20052;-62
2023/01/05 07:40:19;;;;;;;10.18;1.70;;;9.50;89.90;;;;;;5067378;28;20513;-63
2023/01/05 07:42:50;;;;;;;9.48;1.63;;;9.50;89.60;;;;;;5064032;28;20137;-64
2023/01/05 07:45:17;;;;;;;6.85;1.15;;;9.50;89.60;;;;;;5064361;28;20045;-63
2023/01/05 07:47:44;;;;;;;5.68;0.90;;;9.50;89.70;;;;;;5062354;28;20126;-63
2023/01/05 07:50:13;;;;;;;6.70;1.73;;;9.50;89.60;;;;;;5064870;28;20044;-64
2023/01/05 07:52:39;;;;;;;8.27;1.15;;;9.50;89.50;;;;;;5066192;28;20518;-64
2023/01/05 07:55:07;;;;;;;6.72;1.10;;;9.50;89.60;;;;;;5065723;28;20041;-63
2023/01/05 07:57:34;;;;;;;6.78;1.38;;;9.50;89.50;;;;;;5065576;28;20053;-64
2023/01/05 08:00:01;;;;;;;9.52;1.63;;;9.50;89.60;;;;;;5066292;28;20052;-65
2023/01/05 08:02:38;;;;;;;6.13;1.25;;;9.50;89.50;;;;;;5064047;28;20051;-64
2023/01/05 08:05:05;;;;;;;7.18;1.50;;;9.50;89.50;;;;;;5064040;28;20083;-63
2023/01/05 08:07:35;;;;;;;9.48;1.40;;;9.50;89.50;;;;;;5063610;28;20521;-63
2023/01/05 08:15:34;;;;;;;8.38;1.60;;;9.50;89.50;;;;;;5043870;28;21037;-63
2023/01/05 08:18:00;;;;;;;4.20;1.35;;;9.50;89.50;;;;;;5064937;28;20044;-64
2023/01/05 08:20:28;;;;;;;7.28;2.05;;;9.50;89.50;;;;;;5065683;28;20040;-64
2023/01/05 08:22:57;;;;;;;5.32;1.40;;;9.50;89.40;;;;;;5062722;28;20060;-63
2023/01/05 08:25:24;;;;;;;5.78;1.17;;;9.50;89.40;;;;;;5065270;28;20063;-64
2023/01/05 08:27:50;;;;;;;11.02;1.85;;;9.50;89.40;;;;;;5063373;28;20120;-64
2023/01/05 08:30:17;;;;;;;7.00;1.45;;;9.50;89.30;;;;;;5066337;28;20052;-63
2023/01/05 08:32:44;;;;;;;9.88;1.73;;;9.50;89.20;;;;;;5064215;28;20044;-64
2023/01/05 08:35:12;;;;;;;8.07;2.00;;;9.60;89.30;;;;;;5064700;28;20049;-64
2023/01/05 08:37:44;;;;;;;7.40;1.63;;;9.60;89.30;;;;;;5063426;28;20037;-64
2023/01/05 08:40:13;;;;;;;7.15;1.52;;;9.60;89.30;;;;;;5063716;28;20091;-63
2023/01/05 08:42:40;;;;;;;8.52;1.60;;;9.60;89.30;;;;;;5062843;28;20577;-63
2023/01/05 08:45:09;;;;;;;8.25;1.30;;;9.60;89.20;;;;;;5053475;28;20924;-63
2023/01/05 08:47:35;;;;;;;7.20;1.48;;;9.60;89.20;;;;;;5049207;28;20049;-63
2023/01/05 08:50:02;;;;;;;4.63;0.98;;;9.60;89.30;;;;;;5054340;28;20041;-64
2023/01/05 08:52:32;;;;;;;6.95;1.60;;;9.60;89.10;;;;;;5053615;28;20056;-64
2023/01/05 08:54:59;;;;;;;8.60;1.75;;;9.60;89.10;;;;;;5055332;28;20055;-63
2023/01/05 08:57:27;;;;;;;10.00;1.50;;;9.60;89.00;;;;;;5056596;28;20094;-59
2023/01/05 08:59:54;;;;;;;6.55;1.10;;;9.60;88.90;;;;;;5054866;28;20566;-59
2023/01/05 09:02:21;;;;;;;9.00;1.27;;;9.60;88.90;;;;;;5053978;28;20476;-61
2023/01/05 09:04:49;;;;;;;6.88;1.30;;;9.60;88.80;;;;;;5058096;28;20136;-60
2023/01/05 09:07:16;;;;;;;8.55;1.73;;;9.70;88.70;;;;;;5055318;28;20072;-59
2023/01/05 09:09:43;;;;;;;7.55;1.30;;;9.70;88.70;;;;;;5055918;28;20422;-61
2023/01/05 09:12:10;;;;;;;5.40;1.45;;;9.60;88.60;;;;;;5055730;28;20049;-59
2023/01/05 09:14:39;;;;;;;10.07;1.20;;;9.60;88.60;;;;;;5053832;28;20049;-59
2023/01/05 09:17:06;;;;;;;7.75;1.10;;;9.60;88.50;;;;;;5055670;28;20051;-59
2023/01/05 09:19:34;;;;;;;6.80;1.33;;;9.70;88.50;;;;;;5053670;28;20040;-61
2023/01/05 09:22:02;;;;;;;10.35;1.25;;;9.70;88.40;;;;;;5054773;28;20053;-64
2023/01/05 09:24:31;;;;;;;7.40;1.38;;;9.70;88.50;;;;;;5051446;28;20065;-63
2023/01/05 09:26:58;;;;;;;5.90;1.40;;;9.70;88.40;;;;;;5051383;28;20106;-59
2023/01/05 09:29:25;;;;;;;9.25;1.45;;;9.70;88.30;;;;;;5048733;28;20049;-61
2023/01/05 09:31:53;;;;;;;3.38;0.98;;;9.70;88.30;;;;;;5052906;28;20040;-64
2023/01/05 09:34:20;;;;;;;7.55;1.63;;;9.80;88.20;;;;;;5052531;28;20052;-64
2023/01/05 09:36:47;;;;;;;9.52;1.13;;;9.80;88.20;;;;;;5059089;28;20050;-67
2023/01/05 09:39:14;;;;;;;9.48;1.50;;;9.80;88.20;;;;;;5046330;28;20051;-67
2023/01/05 09:41:44;;;;;;;5.97;0.90;;;9.80;88.20;;;;;;5054516;28;20045;-59
2023/01/05 09:44:14;;;;;;;;;;;9.80;88.10;;;;;;5064976;28;20414;-60
2023/01/05 09:46:44;;;;;;;7.90;1.80;;;9.90;88.20;;;;;;5064916;28;19924;-57
2023/01/05 09:49:14;;;;;;;6.65;1.17;;;9.90;88.00;;;;;;5066827;28;20040;-58
2023/01/05 09:51:42;;;;;;;7.82;1.30;;;9.90;88.00;;;;;;5068983;28;20048;-57
2023/01/05 09:54:16;;;;;;;7.32;1.02;;;10.00;87.90;;;;;;5068608;28;20040;-58
2023/01/05 09:56:44;;;;;;;7.55;1.73;;;10.10;88.00;;;;;;5068230;28;20185;-68
2023/01/05 09:59:16;;;;;;;9.43;1.83;;;10.10;87.90;;;;;;5066281;28;20052;-66
2023/01/05 10:01:45;;;;;;;9.10;1.40;;;10.10;87.80;;;;;;5066255;28;20495;-59
2023/01/05 10:04:16;;;;;;;7.25;1.27;;;10.10;87.70;;;;;;5066741;28;20044;-59
2023/01/05 10:06:47;;;;;;;6.72;1.50;;;10.20;87.60;;;;;;5062386;28;20048;-59
2023/01/05 10:09:19;;;;;;;5.43;1.40;;;10.20;87.60;;;;;;5065214;28;20131;-59
2023/01/05 10:14:39;;;;;;;6.25;1.17;;;10.30;87.60;;;;;;5065076;28;20064;-60
2023/01/05 10:17:13;;;;;;;6.70;1.42;;;10.30;87.40;;;;;;5065557;28;20448;-59
2023/01/05 10:19:42;;;;;;;9.20;1.30;;;10.30;87.50;;;;;;5066810;28;20098;-59
2023/01/05 10:22:25;;;;;;;7.15;1.48;;;10.30;87.50;;;;;;5069967;28;20514;-60
2023/01/05 10:24:58;;;;;;;7.68;1.48;;;10.30;87.50;;;;;;5065084;28;20056;-59
2023/01/05 10:27:29;;;;;;;6.65;1.63;;;10.30;87.60;;;;;;5068986;28;20063;-59
2023/01/05 10:30:10;;;;;;;7.00;1.85;;;10.30;87.40;;;;;;5062824;28;20048;-60
2023/01/05 10:32:56;;;;;;;7.90;1.85;;;10.30;87.30;;;;;;5064894;28;20055;-60
2023/01/05 10:35:39;;;;;;;13.65;2.47;;;10.40;87.40;;;;;;5067019;28;20064;-67
2023/01/05 10:38:16;;;;;;;8.52;2.15;;;10.30;87.40;;;;;;5062510;28;20057;-66
2023/01/05 10:40:55;;;;;;;6.63;1.77;;;10.30;87.40;;;;;;5065667;28;20048;-65
2023/01/05 10:43:57;;;;;;;7.37;1.93;;;10.30;87.30;;;;;;5065443;28;20044;-66
2023/01/05 10:46:24;;;;;;;7.40;1.88;;;10.40;87.30;;;;;;5067975;28;20048;-66
2023/01/05 10:48:51;;;;;;;6.28;1.75;;;10.40;87.20;;;;;;5064774;28;20612;-66
2023/01/05 10:51:20;;;;;;;8.65;1.83;;;10.40;87.20;;;;;;5066006;28;20045;-66
2023/01/05 10:53:47;;;;;;;7.15;1.48;;;10.40;87.30;;;;;;5064475;28;20379;-66
2023/01/05 10:56:16;;;;;;;7.30;1.42;;;10.50;87.10;;;;;;5067211;28;20040;-59
2023/01/05 10:58:45;;;;;;;8.55;1.48;;;10.50;87.10;;;;;;5064255;28;20163;-60
2023/01/05 11:01:24;;;;;;;9.57;2.10;;;10.60;87.00;;;;;;5065457;28;20121;-59
2023/01/05 11:03:55;;;;;;;10.15;1.48;;;10.60;87.00;;;;;;5047555;28;20044;-60
2023/01/05 11:06:26;;;;;;;9.65;2.08;;;10.50;86.90;;;;;;5066493;28;20043;-65
2023/01/05 11:08:55;;;;;;;11.55;2.58;;;10.50;87.00;;;;;;5062738;28;20052;-66
2023/01/05 11:11:24;;;;;;;5.53;1.63;;;10.60;86.90;;;;;;5064901;28;20052;-59
2023/01/05 11:13:56;;;;;;;6.50;1.40;;;10.60;86.90;;;;;;5066836;28;20920;-59
2023/01/05 11:16:25;;;;;;;5.97;1.70;;;10.50;86.80;;;;;;5062386;28;20457;-59
2023/01/05 11:18:53;;;;;;;9.20;1.55;;;10.60;86.90;;;;;;5066547;28;20052;-60
2023/01/05 11:21:24;;;;;;;8.18;1.50;;;10.50;86.90;;;;;;5062395;28;20051;-66
2023/01/05 11:23:53;;;;;;;9.23;1.58;;;10.50;86.90;;;;;;5065488;28;20075;-66
2023/01/05 11:26:29;;;;;;;5.90;1.80;;;10.50;87.00;;;;;;5065946;28;20041;-65
2023/01/05 11:28:59;;;;;;;10.18;2.45;;;10.50;87.10;;;;;;5063211;28;20040;-66
2023/01/05 11:31:28;;;;;;;6.70;1.30;;;10.50;87.10;;;;;;5058121;28;20106;-69
2023/01/05 11:33:58;;;;;;;9.32;2.85;;;10.50;87.30;;;;;;5065320;28;20118;-66
2023/01/05 11:36:27;;;;;;;9.90;2.70;;;10.50;87.40;;;;;;5067202;28;20090;-58
2023/01/05 11:38:55;;;;;;;11.02;2.25;;;10.50;87.60;;;;;;5067835;28;20059;-58
2023/01/05 11:41:23;;;;;;;9.13;2.65;;;10.50;87.60;;;;;;5064436;28;20052;-61
2023/01/05 11:43:53;;;;;;;9.75;2.17;;;10.50;87.70;;;;;;5066260;28;20044;-62
2023/01/05 11:46:20;;;;;;;8.50;2.28;;;10.50;87.70;;;;;;5064512;28;20048;-57
2023/01/05 11:48:52;;;;;;;8.65;1.98;;;10.50;87.60;;;;;;5067679;28;20051;-58
2023/01/05 11:51:38;;;;;;;9.77;2.03;;;10.50;87.80;;;;;;5064088;28;20055;-60
2023/01/05 11:54:06;;;;;;;7.53;1.80;;;10.50;87.80;;;;;;5066735;28;20048;-60
2023/01/05 11:56:33;;;;;;;9.98;1.95;;;10.60;87.80;;;;;;5065521;28;20080;-61
2023/01/05 11:59:00;;;;;;;8.30;2.05;;;10.50;87.70;;;;;;5064173;28;20071;-62
2023/01/05 12:01:57;;;;;;;9.35;2.15;;;10.50;87.70;;;;;;5063522;28;20053;-60
2023/01/05 12:05:01;;;;;;;8.80;1.70;;;10.60;87.70;;;;;;5066505;28;20589;-61
2023/01/05 12:07:34;;;;;;;6.90;1.33;;;10.60;87.70;;;;;;5063445;28;20044;-60
2023/01/05 12:10:18;;;;;;;7.88;1.83;;;10.60;87.70;;;;;;5063006;28;20415;-60
2023/01/05 12:12:55;;;;;;;10.07;1.77;;;10.60;87.60;;;;;;5064267;28;20056;-61
2023/01/05 12:15:52;;;;;;;6.85;1.55;;;10.60;87.70;;;;;;5062778;28;20044;-60
2023/01/05 12:18:29;;;;;;;9.25;2.05;;;10.60;87.60;;;;;;5059961;28;20044;-60
2023/01/05 12:21:01;;;;;;;8.38;1.40;;;10.60;87.50;;;;;;5063219;28;20051;-61
2023/01/05 12:23:41;;;;;;;10.90;1.95;;;10.50;87.50;;;;;;5065124;28;20047;-60
2023/01/05 12:26:18;;;;;;;9.23;2.70;;;10.60;87.50;;;;;;5062582;28;20040;-60
2023/01/05 12:29:01;;;;;;;8.23;1.58;;;10.60;87.50;;;;;;5067155;28;20098;-60
2023/01/05 12:31:40;;;;;;;10.13;2.00;;;10.60;87.30;;;;;;5064627;28;20048;-67
2023/01/05 12:34:22;;;;;;;7.55;1.65;;;10.60;87.20;;;;;;5065744;28;20048;-68
2023/01/05 12:37:03;;;;;;;7.68;1.88;;;10.60;87.40;;;;;;5071132;28;20048;-68
2023/01/05 12:39:53;;;;;;;9.55;1.80;;;10.50;87.40;;;;;;5067017;28;20146;-67
2023/01/05 12:42:52;;;;;;;10.02;1.92;;;10.50;87.30;;;;;;5068404;28;20037;-60
2023/01/05 12:45:40;;;;;;;7.60;1.55;;;10.50;87.40;;;;;;5051832;28;20037;-62
2023/01/05 12:48:12;;;;;;;6.18;1.58;;;10.50;87.30;;;;;;5051440;28;20045;-60
2023/01/05 12:50:44;;;;;;;6.80;1.77;;;10.60;87.40;;;;;;5057728;28;20048;-62
2023/01/05 12:53:22;;;;;;;9.18;2.15;;;10.50;87.30;;;;;;5056993;28;20040;-61
2023/01/05 12:55:54;;;;;;;9.07;2.08;;;10.50;87.40;;;;;;5059556;28;20041;-61
2023/01/05 12:58:29;;;;;;;7.57;1.70;;;10.50;87.30;;;;;;5055883;28;20090;-61
2023/01/05 13:00:57;;;;;;;7.65;1.73;;;10.50;87.40;;;;;;5052742;28;20052;-61
2023/01/05 13:03:30;;;;;;;7.45;1.60;;;10.50;87.50;;;;;;5054538;28;20051;-60
2023/01/05 13:06:02;;;;;;;11.55;2.05;;;10.50;87.30;;;;;;5055349;28;20075;-62
2023/01/05 13:08:37;;;;;;;9.50;2.17;;;10.50;87.40;;;;;;5049431;28;20049;-60
2023/01/05 13:11:13;;;;;;;10.93;2.42;;;10.60;87.40;;;;;;5054714;28;20079;-59
2023/01/05 13:13:45;;;;;;;10.98;1.80;;;10.60;87.40;;;;;;5058959;28;20045;-60
2023/01/05 13:16:17;;;;;;;10.48;1.63;;;10.60;87.40;;;;;;5060811;28;20052;-60
2023/01/05 13:18:49;;;;;;;9.25;2.15;;;10.60;87.40;;;;;;5053878;28;20147;-60
2023/01/05 13:21:18;;;;;;;8.35;2.00;;;10.50;87.30;;;;;;5053307;28;20052;-61
2023/01/05 13:23:50;;;;;;;11.45;2.65;;;10.60;87.40;;;;;;5056173;28;20037;-60
2023/01/05 13:26:20;;;;;;;11.25;2.40;;;10.60;87.50;;;;;;5055582;28;20041;-68
2023/01/05 13:28:49;;;;;;;10.25;2.33;;;10.60;87.40;;;;;;5055080;28;20098;-67
2023/01/05 13:31:28;;;;;;;10.40;2.03;;;10.60;87.50;;;;;;5053296;28;20492;-69
2023/01/05 13:34:39;;;;;;;9.68;2.42;;;10.60;87.50;;;;;;5052369;28;20530;-67
2023/01/05 13:37:48;;;;;;;10.35;2.10;;;10.60;87.40;;;;;;5037204;28;20450;-69
2023/01/05 13:40:33;;;;;;;10.70;2.58;;;10.60;87.50;;;;;;5054452;28;20056;-58
2023/01/05 13:43:27;;;;;;;9.18;2.58;;;10.60;87.40;;;;;;5057343;28;20074;-60
2023/01/05 13:46:14;;;;;;;9.68;2.22;;;10.60;87.30;;;;;;5066948;28;20053;-60
2023/01/05 13:48:58;;;;;;;9.35;1.95;;;10.60;87.30;;;;;;5064027;28;21949;-60
2023/01/05 13:51:51;;;;;;;9.93;2.45;;;10.60;87.20;;;;;;5070254;28;20056;-61